sensor_id;sensor_type;location;lat;lon;timestamp;pressure;altitude;pressure_sealevel;temperature;humidity
5484;BME280;2764;48.794;8.326;2022-09-09T00:00:20;99449.31;;;17.05;94.39
5484;BME280;2764;48.794;8.326;2022-09-09T00:01:33;99489.31;;;17.35;94.72
5484;BME280;2764;48.794;8.326;2022-09-09T00:02:38;99460.63;;;17.18;95.74
5484;BME280;2764;48.794;8.326;2022-09-09T00:03:53;99462.94;;;17.22;95.91
5484;BME280;2764;48.794;8.326;2022-09-09T00:05:00;99489.91;;;17.38;95.48
5484;BME280;2764;48.794;8.326;2022-09-09T00:06:17;99493.53;;;17.37;94.78
5484;BME280;2764;48.794;8.326;2022-09-09T00:07:34;99467.78;;;17.28;94.72
5484;BME280;2764;48.794;8.326;2022-09-09T00:13:55;99490.78;;;17.50;92.90
5484;BME280;2764;48.794;8.326;2022-09-09T00:16:22;99441.00;;;17.33;91.32
5484;BME280;2764;48.794;8.326;2022-09-09T00:21:25;99452.28;;;18.03;86.91
5484;BME280;2764;48.794;8.326;2022-09-09T00:22:34;99453.72;;;17.96;86.89
5484;BME280;2764;48.794;8.326;2022-09-09T00:23:39;99485.72;;;18.15;86.50
5484;BME280;2764;48.794;8.326;2022-09-09T00:24:45;99485.25;;;18.10;87.72
5484;BME280;2764;48.794;8.326;2022-09-09T00:25:56;99485.50;;;18.07;88.41
5484;BME280;2764;48.794;8.326;2022-09-09T00:27:08;99459.38;;;17.80;87.46
5484;BME280;2764;48.794;8.326;2022-09-09T00:28:24;99483.56;;;17.98;88.51
5484;BME280;2764;48.794;8.326;2022-09-09T00:29:40;99492.59;;;17.95;89.25
5484;BME280;2764;48.794;8.326;2022-09-09T00:30:46;99495.09;;;17.86;88.28
5484;BME280;2764;48.794;8.326;2022-09-09T00:31:54;99475.25;;;17.80;88.63
5484;BME280;2764;48.794;8.326;2022-09-09T00:33:10;99459.97;;;17.73;89.38
5484;BME280;2764;48.794;8.326;2022-09-09T00:34:20;99465.16;;;17.74;88.53
5484;BME280;2764;48.794;8.326;2022-09-09T00:35:26;99482.94;;;17.83;88.50
5484;BME280;2764;48.794;8.326;2022-09-09T00:36:30;99457.09;;;17.87;81.54
5484;BME280;2764;48.794;8.326;2022-09-09T00:37:34;99503.44;;;18.26;79.87
5484;BME280;2764;48.794;8.326;2022-09-09T00:38:42;99467.53;;;18.33;78.49
5484;BME280;2764;48.794;8.326;2022-09-09T00:39:45;99466.84;;;18.42;78.65
5484;BME280;2764;48.794;8.326;2022-09-09T00:41:11;99483.06;;;18.59;77.86
5484;BME280;2764;48.794;8.326;2022-09-09T00:42:23;99486.78;;;18.68;77.74
5484;BME280;2764;48.794;8.326;2022-09-09T00:44:34;99475.66;;;18.85;76.23
5484;BME280;2764;48.794;8.326;2022-09-09T00:53:19;99515.50;;;19.37;72.06
5484;BME280;2764;48.794;8.326;2022-09-09T00:56:18;99468.84;;;19.03;74.86
5484;BME280;2764;48.794;8.326;2022-09-09T00:57:32;99515.25;;;19.40;72.95
5484;BME280;2764;48.794;8.326;2022-09-09T00:58:35;99528.63;;;19.39;74.50
5484;BME280;2764;48.794;8.326;2022-09-09T00:59:48;99545.88;;;19.33;75.75
5484;BME280;2764;48.794;8.326;2022-09-09T01:01:20;99542.78;;;19.17;76.38
5484;BME280;2764;48.794;8.326;2022-09-09T01:03:52;99549.72;;;18.86;83.29
5484;BME280;2764;48.794;8.326;2022-09-09T01:05:00;99551.25;;;18.46;85.71
5484;BME280;2764;48.794;8.326;2022-09-09T01:06:29;99589.09;;;18.13;89.12
5484;BME280;2764;48.794;8.326;2022-09-09T01:07:34;99570.84;;;17.87;90.09
5484;BME280;2764;48.794;8.326;2022-09-09T01:10:00;99561.97;;;17.29;96.67
5484;BME280;2764;48.794;8.326;2022-09-09T01:11:10;99570.63;;;17.08;100.00
5484;BME280;2764;48.794;8.326;2022-09-09T01:12:23;99584.88;;;16.81;100.00
5484;BME280;2764;48.794;8.326;2022-09-09T01:13:34;99582.41;;;16.55;100.00
5484;BME280;2764;48.794;8.326;2022-09-09T01:15:40;99527.09;;;15.90;100.00
5484;BME280;2764;48.794;8.326;2022-09-09T01:16:43;99582.09;;;16.09;100.00
5484;BME280;2764;48.794;8.326;2022-09-09T01:18:08;99584.38;;;16.01;100.00
5484;BME280;2764;48.794;8.326;2022-09-09T01:19:20;99576.06;;;15.94;100.00
5484;BME280;2764;48.794;8.326;2022-09-09T01:21:52;99581.41;;;15.80;100.00
5484;BME280;2764;48.794;8.326;2022-09-09T01:24:38;99565.44;;;15.57;100.00
5484;BME280;2764;48.794;8.326;2022-09-09T01:27:07;99533.69;;;15.45;100.00
5484;BME280;2764;48.794;8.326;2022-09-09T01:28:15;99532.06;;;15.43;100.00
5484;BME280;2764;48.794;8.326;2022-09-09T01:29:19;99549.03;;;15.39;100.00
5484;BME280;2764;48.794;8.326;2022-09-09T01:30:22;99546.34;;;15.26;100.00
5484;BME280;2764;48.794;8.326;2022-09-09T01:31:36;99548.72;;;15.31;100.00
5484;BME280;2764;48.794;8.326;2022-09-09T01:32:50;99545.22;;;15.30;100.00
5484;BME280;2764;48.794;8.326;2022-09-09T01:33:52;99546.81;;;15.33;100.00
5484;BME280;2764;48.794;8.326;2022-09-09T01:34:54;99556.09;;;15.38;100.00
5484;BME280;2764;48.794;8.326;2022-09-09T01:36:05;99565.47;;;15.42;100.00
5484;BME280;2764;48.794;8.326;2022-09-09T01:37:10;99548.28;;;15.37;100.00
5484;BME280;2764;48.794;8.326;2022-09-09T01:38:13;99559.97;;;15.47;100.00
5484;BME280;2764;48.794;8.326;2022-09-09T01:39:15;99569.66;;;15.47;100.00
5484;BME280;2764;48.794;8.326;2022-09-09T01:40:18;99555.25;;;15.38;100.00
5484;BME280;2764;48.794;8.326;2022-09-09T01:41:20;99545.22;;;15.30;100.00
5484;BME280;2764;48.794;8.326;2022-09-09T01:42:22;99570.00;;;15.40;100.00
5484;BME280;2764;48.794;8.326;2022-09-09T01:43:24;99563.44;;;15.33;100.00
5484;BME280;2764;48.794;8.326;2022-09-09T01:44:27;99572.94;;;15.36;100.00
5484;BME280;2764;48.794;8.326;2022-09-09T01:45:30;99542.59;;;15.30;100.00
5484;BME280;2764;48.794;8.326;2022-09-09T01:46:32;99543.44;;;15.31;100.00
5484;BME280;2764;48.794;8.326;2022-09-09T01:47:35;99556.88;;;15.26;100.00
5484;BME280;2764;48.794;8.326;2022-09-09T01:48:37;99558.69;;;15.26;100.00
5484;BME280;2764;48.794;8.326;2022-09-09T01:49:40;99564.06;;;15.24;100.00
5484;BME280;2764;48.794;8.326;2022-09-09T01:50:42;99559.00;;;15.21;100.00
5484;BME280;2764;48.794;8.326;2022-09-09T01:51:46;99547.81;;;15.18;100.00
5484;BME280;2764;48.794;8.326;2022-09-09T01:52:56;99521.00;;;14.99;100.00
5484;BME280;2764;48.794;8.326;2022-09-09T01:54:00;99550.56;;;15.16;100.00
5484;BME280;2764;48.794;8.326;2022-09-09T01:55:04;99495.53;;;14.85;100.00
5484;BME280;2764;48.794;8.326;2022-09-09T02:00:13;99520.00;;;15.26;100.00
5484;BME280;2764;48.794;8.326;2022-09-09T02:01:40;99528.69;;;15.28;100.00
5484;BME280;2764;48.794;8.326;2022-09-09T02:02:56;99528.88;;;15.25;100.00
5484;BME280;2764;48.794;8.326;2022-09-09T02:04:33;99488.44;;;15.00;100.00
5484;BME280;2764;48.794;8.326;2022-09-09T02:05:36;99503.13;;;15.16;100.00
5484;BME280;2764;48.794;8.326;2022-09-09T02:06:39;99510.84;;;15.19;100.00
5484;BME280;2764;48.794;8.326;2022-09-09T02:07:52;99511.78;;;15.18;100.00
5484;BME280;2764;48.794;8.326;2022-09-09T02:09:01;99503.63;;;15.09;100.00
5484;BME280;2764;48.794;8.326;2022-09-09T02:11:37;99507.34;;;15.19;100.00
5484;BME280;2764;48.794;8.326;2022-09-09T02:12:43;99484.88;;;15.01;100.00
5484;BME280;2764;48.794;8.326;2022-09-09T02:13:47;99505.66;;;15.18;100.00
5484;BME280;2764;48.794;8.326;2022-09-09T02:14:55;99506.63;;;15.17;100.00
5484;BME280;2764;48.794;8.326;2022-09-09T02:16:01;99522.31;;;15.18;100.00
5484;BME280;2764;48.794;8.326;2022-09-09T02:17:09;99504.91;;;15.16;100.00
5484;BME280;2764;48.794;8.326;2022-09-09T02:18:13;99509.44;;;15.14;100.00
5484;BME280;2764;48.794;8.326;2022-09-09T02:19:25;99505.22;;;15.11;100.00
5484;BME280;2764;48.794;8.326;2022-09-09T02:20:31;99480.41;;;15.01;100.00
5484;BME280;2764;48.794;8.326;2022-09-09T02:21:36;99478.88;;;14.99;100.00
5484;BME280;2764;48.794;8.326;2022-09-09T02:22:40;99500.69;;;15.13;100.00
5484;BME280;2764;48.794;8.326;2022-09-09T02:23:44;99479.94;;;15.09;100.00
5484;BME280;2764;48.794;8.326;2022-09-09T02:24:49;99463.56;;;15.04;100.00
5484;BME280;2764;48.794;8.326;2022-09-09T02:25:57;99491.00;;;15.14;100.00
5484;BME280;2764;48.794;8.326;2022-09-09T02:27:03;99464.22;;;15.07;100.00
5484;BME280;2764;48.794;8.326;2022-09-09T02:28:09;99476.06;;;15.14;100.00
5484;BME280;2764;48.794;8.326;2022-09-09T02:29:15;99481.50;;;15.11;100.00
5484;BME280;2764;48.794;8.326;2022-09-09T02:30:18;99478.03;;;15.11;100.00
5484;BME280;2764;48.794;8.326;2022-09-09T02:31:24;99475.69;;;15.06;100.00
5484;BME280;2764;48.794;8.326;2022-09-09T02:32:27;99480.34;;;15.03;100.00
5484;BME280;2764;48.794;8.326;2022-09-09T02:33:40;99469.38;;;14.96;100.00
5484;BME280;2764;48.794;8.326;2022-09-09T02:34:47;99487.94;;;15.07;100.00
5484;BME280;2764;48.794;8.326;2022-09-09T02:35:52;99460.06;;;14.91;100.00
5484;BME280;2764;48.794;8.326;2022-09-09T02:36:57;99437.28;;;14.77;100.00
5484;BME280;2764;48.794;8.326;2022-09-09T02:38:04;99455.66;;;14.91;100.00
5484;BME280;2764;48.794;8.326;2022-09-09T02:39:10;99462.41;;;14.95;100.00
5484;BME280;2764;48.794;8.326;2022-09-09T02:40:14;99460.91;;;14.91;100.00
5484;BME280;2764;48.794;8.326;2022-09-09T02:41:26;99481.81;;;15.07;100.00
5484;BME280;2764;48.794;8.326;2022-09-09T02:42:30;99483.81;;;15.03;100.00
5484;BME280;2764;48.794;8.326;2022-09-09T02:43:33;99460.50;;;14.97;100.00
5484;BME280;2764;48.794;8.326;2022-09-09T02:44:35;99460.44;;;14.99;100.00
5484;BME280;2764;48.794;8.326;2022-09-09T02:45:44;99465.97;;;14.94;100.00
5484;BME280;2764;48.794;8.326;2022-09-09T02:50:54;99460.47;;;14.85;100.00
5484;BME280;2764;48.794;8.326;2022-09-09T02:52:03;99473.97;;;14.93;100.00
5484;BME280;2764;48.794;8.326;2022-09-09T02:53:16;99465.34;;;14.91;100.00
5484;BME280;2764;48.794;8.326;2022-09-09T02:54:27;99447.16;;;14.73;100.00
5484;BME280;2764;48.794;8.326;2022-09-09T02:55:41;99458.53;;;14.74;100.00
5484;BME280;2764;48.794;8.326;2022-09-09T02:56:52;99478.66;;;14.75;100.00
5484;BME280;2764;48.794;8.326;2022-09-09T02:57:59;99452.56;;;14.58;100.00
5484;BME280;2764;48.794;8.326;2022-09-09T02:59:04;99469.09;;;14.60;100.00
5484;BME280;2764;48.794;8.326;2022-09-09T03:00:07;99475.31;;;14.59;100.00
5484;BME280;2764;48.794;8.326;2022-09-09T03:01:08;99468.09;;;14.48;100.00
5484;BME280;2764;48.794;8.326;2022-09-09T03:02:11;99466.44;;;14.47;100.00
5484;BME280;2764;48.794;8.326;2022-09-09T03:03:15;99485.28;;;14.54;100.00
5484;BME280;2764;48.794;8.326;2022-09-09T03:04:17;99505.03;;;14.61;100.00
5484;BME280;2764;48.794;8.326;2022-09-09T03:05:20;99505.22;;;14.58;100.00
5484;BME280;2764;48.794;8.326;2022-09-09T03:06:22;99500.78;;;14.58;100.00
5484;BME280;2764;48.794;8.326;2022-09-09T03:07:24;99473.56;;;14.45;100.00
5484;BME280;2764;48.794;8.326;2022-09-09T03:08:26;99496.28;;;14.60;100.00
5484;BME280;2764;48.794;8.326;2022-09-09T03:09:29;99504.91;;;14.62;100.00
5484;BME280;2764;48.794;8.326;2022-09-09T03:10:32;99494.03;;;14.54;100.00
5484;BME280;2764;48.794;8.326;2022-09-09T03:11:34;99498.47;;;14.54;100.00
5484;BME280;2764;48.794;8.326;2022-09-09T03:12:36;99488.13;;;14.51;100.00
5484;BME280;2764;48.794;8.326;2022-09-09T03:13:38;99473.03;;;14.40;100.00
5484;BME280;2764;48.794;8.326;2022-09-09T03:14:40;99474.06;;;14.38;100.00
5484;BME280;2764;48.794;8.326;2022-09-09T03:15:42;99511.31;;;14.58;100.00
5484;BME280;2764;48.794;8.326;2022-09-09T03:16:44;99504.91;;;14.62;100.00
5484;BME280;2764;48.794;8.326;2022-09-09T03:17:49;99463.06;;;14.45;100.00
5484;BME280;2764;48.794;8.326;2022-09-09T03:18:51;99507.16;;;14.68;100.00
5484;BME280;2764;48.794;8.326;2022-09-09T03:19:53;99495.34;;;14.61;100.00
5484;BME280;2764;48.794;8.326;2022-09-09T03:20:56;99482.94;;;14.63;100.00
5484;BME280;2764;48.794;8.326;2022-09-09T03:21:59;99497.16;;;14.73;100.00
5484;BME280;2764;48.794;8.326;2022-09-09T03:23:01;99496.13;;;14.76;100.00
5484;BME280;2764;48.794;8.326;2022-09-09T03:24:04;99480.19;;;14.65;100.00
5484;BME280;2764;48.794;8.326;2022-09-09T03:25:06;99500.66;;;14.74;100.00
5484;BME280;2764;48.794;8.326;2022-09-09T03:26:08;99476.06;;;14.61;100.00
5484;BME280;2764;48.794;8.326;2022-09-09T03:27:10;99439.75;;;14.39;100.00
5484;BME280;2764;48.794;8.326;2022-09-09T03:28:11;99477.66;;;14.63;100.00
5484;BME280;2764;48.794;8.326;2022-09-09T03:29:14;99495.13;;;14.64;100.00
5484;BME280;2764;48.794;8.326;2022-09-09T03:30:16;99501.81;;;14.70;100.00
5484;BME280;2764;48.794;8.326;2022-09-09T03:31:18;99493.66;;;14.60;100.00
5484;BME280;2764;48.794;8.326;2022-09-09T03:32:23;99499.88;;;14.59;100.00
5484;BME280;2764;48.794;8.326;2022-09-09T03:33:27;99489.25;;;14.47;100.00
5484;BME280;2764;48.794;8.326;2022-09-09T03:34:30;99486.44;;;14.50;100.00
5484;BME280;2764;48.794;8.326;2022-09-09T03:35:33;99459.59;;;14.31;100.00
5484;BME280;2764;48.794;8.326;2022-09-09T03:36:35;99496.56;;;14.56;100.00
5484;BME280;2764;48.794;8.326;2022-09-09T03:37:37;99518.66;;;14.53;100.00
5484;BME280;2764;48.794;8.326;2022-09-09T03:38:41;99453.66;;;14.27;100.00
5484;BME280;2764;48.794;8.326;2022-09-09T03:39:43;99508.06;;;14.55;100.00
5484;BME280;2764;48.794;8.326;2022-09-09T03:40:53;99504.66;;;14.53;100.00
5484;BME280;2764;48.794;8.326;2022-09-09T03:41:56;99496.97;;;14.50;100.00
5484;BME280;2764;48.794;8.326;2022-09-09T03:42:58;99492.38;;;14.39;100.00
5484;BME280;2764;48.794;8.326;2022-09-09T03:44:01;99439.88;;;14.09;100.00
5484;BME280;2764;48.794;8.326;2022-09-09T03:45:08;99492.94;;;14.44;100.00
5484;BME280;2764;48.794;8.326;2022-09-09T03:46:11;99492.00;;;14.45;100.00
5484;BME280;2764;48.794;8.326;2022-09-09T03:47:13;99463.41;;;14.25;100.00
5484;BME280;2764;48.794;8.326;2022-09-09T03:48:16;99502.41;;;14.47;100.00
5484;BME280;2764;48.794;8.326;2022-09-09T03:49:20;99488.06;;;14.38;100.00
5484;BME280;2764;48.794;8.326;2022-09-09T03:50:23;99495.84;;;14.40;100.00
5484;BME280;2764;48.794;8.326;2022-09-09T03:51:25;99491.63;;;14.37;100.00
5484;BME280;2764;48.794;8.326;2022-09-09T03:52:27;99494.81;;;14.42;100.00
5484;BME280;2764;48.794;8.326;2022-09-09T03:53:30;99488.06;;;14.38;100.00
5484;BME280;2764;48.794;8.326;2022-09-09T03:54:31;99494.06;;;14.40;100.00
5484;BME280;2764;48.794;8.326;2022-09-09T03:55:33;99501.56;;;14.46;100.00
5484;BME280;2764;48.794;8.326;2022-09-09T03:56:35;99458.44;;;14.21;100.00
5484;BME280;2764;48.794;8.326;2022-09-09T03:57:37;99438.19;;;14.08;100.00
5484;BME280;2764;48.794;8.326;2022-09-09T03:58:39;99470.69;;;14.36;100.00
5484;BME280;2764;48.794;8.326;2022-09-09T03:59:41;99492.56;;;14.50;100.00
5484;BME280;2764;48.794;8.326;2022-09-09T04:00:43;99477.31;;;14.41;100.00
5484;BME280;2764;48.794;8.326;2022-09-09T04:01:46;99499.78;;;14.47;100.00
5484;BME280;2764;48.794;8.326;2022-09-09T04:02:48;99442.78;;;14.19;100.00
5484;BME280;2764;48.794;8.326;2022-09-09T04:03:51;99470.13;;;14.31;100.00
5484;BME280;2764;48.794;8.326;2022-09-09T04:04:54;99477.53;;;14.24;100.00
5484;BME280;2764;48.794;8.326;2022-09-09T04:05:59;99502.22;;;14.50;100.00
5484;BME280;2764;48.794;8.326;2022-09-09T04:07:03;99467.38;;;14.32;100.00
5484;BME280;2764;48.794;8.326;2022-09-09T04:08:08;99453.56;;;14.29;100.00
5484;BME280;2764;48.794;8.326;2022-09-09T04:09:11;99452.63;;;14.30;100.00
5484;BME280;2764;48.794;8.326;2022-09-09T04:10:12;99488.78;;;14.54;100.00
5484;BME280;2764;48.794;8.326;2022-09-09T04:11:15;99493.81;;;14.57;100.00
5484;BME280;2764;48.794;8.326;2022-09-09T04:12:18;99480.44;;;14.48;100.00
5484;BME280;2764;48.794;8.326;2022-09-09T04:13:20;99484.56;;;14.52;100.00
5484;BME280;2764;48.794;8.326;2022-09-09T04:14:22;99497.53;;;14.55;100.00
5484;BME280;2764;48.794;8.326;2022-09-09T04:15:24;99471.53;;;14.36;100.00
5484;BME280;2764;48.794;8.326;2022-09-09T04:16:25;99464.69;;;14.34;100.00
5484;BME280;2764;48.794;8.326;2022-09-09T04:17:27;99511.78;;;14.51;100.00
5484;BME280;2764;48.794;8.326;2022-09-09T04:18:30;99500.16;;;14.55;100.00
5484;BME280;2764;48.794;8.326;2022-09-09T04:19:32;99493.59;;;14.48;100.00
5484;BME280;2764;48.794;8.326;2022-09-09T04:20:36;99534.16;;;14.58;100.00
5484;BME280;2764;48.794;8.326;2022-09-09T04:21:38;99502.50;;;14.59;100.00
5484;BME280;2764;48.794;8.326;2022-09-09T04:22:41;99488.13;;;14.51;100.00
5484;BME280;2764;48.794;8.326;2022-09-09T04:23:42;99475.53;;;14.42;100.00
5484;BME280;2764;48.794;8.326;2022-09-09T04:24:44;99496.84;;;14.65;100.00
5484;BME280;2764;48.794;8.326;2022-09-09T04:25:54;99500.50;;;14.63;100.00
5484;BME280;2764;48.794;8.326;2022-09-09T04:26:56;99475.34;;;14.45;100.00
5484;BME280;2764;48.794;8.326;2022-09-09T04:27:58;99488.34;;;14.48;100.00
5484;BME280;2764;48.794;8.326;2022-09-09T04:28:59;99506.91;;;14.59;100.00
5484;BME280;2764;48.794;8.326;2022-09-09T04:30:02;99453.66;;;14.27;100.00
5484;BME280;2764;48.794;8.326;2022-09-09T04:31:09;99500.06;;;14.56;100.00
5484;BME280;2764;48.794;8.326;2022-09-09T04:32:13;99420.91;;;14.04;100.00
5484;BME280;2764;48.794;8.326;2022-09-09T04:33:15;99510.47;;;14.58;100.00
5484;BME280;2764;48.794;8.326;2022-09-09T04:34:19;99511.78;;;14.51;100.00
5484;BME280;2764;48.794;8.326;2022-09-09T04:35:20;99500.53;;;14.49;100.00
5484;BME280;2764;48.794;8.326;2022-09-09T04:36:22;99511.44;;;14.57;100.00
5484;BME280;2764;48.794;8.326;2022-09-09T04:37:24;99505.41;;;14.55;100.00
5484;BME280;2764;48.794;8.326;2022-09-09T04:38:27;99468.59;;;14.27;100.00
5484;BME280;2764;48.794;8.326;2022-09-09T04:39:28;99531.75;;;14.55;100.00
5484;BME280;2764;48.794;8.326;2022-09-09T04:40:31;99480.47;;;14.34;100.00
5484;BME280;2764;48.794;8.326;2022-09-09T04:41:33;99501.78;;;14.43;100.00
5484;BME280;2764;48.794;8.326;2022-09-09T04:42:37;99483.94;;;14.34;100.00
5484;BME280;2764;48.794;8.326;2022-09-09T04:43:39;99512.84;;;14.48;100.00
5484;BME280;2764;48.794;8.326;2022-09-09T04:44:40;99512.00;;;14.48;100.00
5484;BME280;2764;48.794;8.326;2022-09-09T04:45:43;99515.84;;;14.56;100.00
5484;BME280;2764;48.794;8.326;2022-09-09T04:46:48;99503.34;;;14.46;100.00
5484;BME280;2764;48.794;8.326;2022-09-09T04:47:50;99513.31;;;14.55;100.00
5484;BME280;2764;48.794;8.326;2022-09-09T04:48:52;99527.75;;;14.62;100.00
5484;BME280;2764;48.794;8.326;2022-09-09T04:49:55;99500.94;;;14.43;100.00
5484;BME280;2764;48.794;8.326;2022-09-09T04:52:02;99460.34;;;14.19;100.00
5484;BME280;2764;48.794;8.326;2022-09-09T04:53:04;99530.66;;;14.57;100.00
5484;BME280;2764;48.794;8.326;2022-09-09T04:54:06;99487.09;;;14.39;100.00
5484;BME280;2764;48.794;8.326;2022-09-09T04:55:09;99537.16;;;14.66;100.00
5484;BME280;2764;48.794;8.326;2022-09-09T04:56:13;99533.50;;;14.68;100.00
5484;BME280;2764;48.794;8.326;2022-09-09T04:57:16;99522.03;;;14.55;100.00
5484;BME280;2764;48.794;8.326;2022-09-09T04:58:19;99525.31;;;14.73;100.00
5484;BME280;2764;48.794;8.326;2022-09-09T04:59:23;99530.56;;;14.73;100.00
5484;BME280;2764;48.794;8.326;2022-09-09T05:00:27;99532.25;;;14.74;100.00
5484;BME280;2764;48.794;8.326;2022-09-09T05:01:28;99498.34;;;14.55;100.00
5484;BME280;2764;48.794;8.326;2022-09-09T05:02:30;99502.97;;;14.52;100.00
5484;BME280;2764;48.794;8.326;2022-09-09T05:03:35;99532.75;;;14.66;100.00
5484;BME280;2764;48.794;8.326;2022-09-09T05:04:39;99533.78;;;14.64;100.00
5484;BME280;2764;48.794;8.326;2022-09-09T05:05:40;99509.91;;;14.53;100.00
5484;BME280;2764;48.794;8.326;2022-09-09T05:06:42;99530.13;;;14.66;100.00
5484;BME280;2764;48.794;8.326;2022-09-09T05:07:44;99497.34;;;14.44;100.00
5484;BME280;2764;48.794;8.326;2022-09-09T05:08:46;99476.56;;;14.25;100.00
5484;BME280;2764;48.794;8.326;2022-09-09T05:09:47;99521.75;;;14.60;100.00
5484;BME280;2764;48.794;8.326;2022-09-09T05:10:52;99534.16;;;14.58;100.00
5484;BME280;2764;48.794;8.326;2022-09-09T05:11:54;99493.31;;;14.38;100.00
5484;BME280;2764;48.794;8.326;2022-09-09T05:12:56;99510.03;;;14.51;100.00
5484;BME280;2764;48.794;8.326;2022-09-09T05:13:57;99503.56;;;14.43;100.00
5484;BME280;2764;48.794;8.326;2022-09-09T05:14:59;99525.03;;;14.63;100.00
5484;BME280;2764;48.794;8.326;2022-09-09T05:16:01;99534.03;;;14.73;100.00
5484;BME280;2764;48.794;8.326;2022-09-09T05:17:03;99540.13;;;14.74;100.00
5484;BME280;2764;48.794;8.326;2022-09-09T05:18:05;99538.34;;;14.74;100.00
5484;BME280;2764;48.794;8.326;2022-09-09T05:19:06;99541.09;;;14.73;100.00
5484;BME280;2764;48.794;8.326;2022-09-09T05:20:12;99527.56;;;14.65;100.00
5484;BME280;2764;48.794;8.326;2022-09-09T05:21:19;99498.94;;;14.46;100.00
5484;BME280;2764;48.794;8.326;2022-09-09T05:22:22;99538.34;;;14.74;100.00
5484;BME280;2764;48.794;8.326;2022-09-09T05:23:25;99497.25;;;14.45;100.00
5484;BME280;2764;48.794;8.326;2022-09-09T05:24:27;99542.47;;;14.78;100.00
5484;BME280;2764;48.794;8.326;2022-09-09T05:25:29;99550.81;;;14.85;100.00
5484;BME280;2764;48.794;8.326;2022-09-09T05:26:31;99554.22;;;14.87;100.00
5484;BME280;2764;48.794;8.326;2022-09-09T05:27:34;99547.91;;;14.90;100.00
5484;BME280;2764;48.794;8.326;2022-09-09T05:28:37;99550.34;;;14.93;100.00
5484;BME280;2764;48.794;8.326;2022-09-09T05:29:40;99524.91;;;14.79;100.00
5484;BME280;2764;48.794;8.326;2022-09-09T05:30:44;99526.38;;;14.83;100.00
5484;BME280;2764;48.794;8.326;2022-09-09T05:31:46;99489.41;;;14.58;100.00
5484;BME280;2764;48.794;8.326;2022-09-09T05:32:51;99548.56;;;14.93;100.00
5484;BME280;2764;48.794;8.326;2022-09-09T05:33:56;99481.63;;;14.56;100.00
5484;BME280;2764;48.794;8.326;2022-09-09T05:34:57;99520.47;;;14.80;100.00
5484;BME280;2764;48.794;8.326;2022-09-09T05:36:02;99501.06;;;14.68;100.00
5484;BME280;2764;48.794;8.326;2022-09-09T05:37:05;99531.88;;;14.80;100.00
5484;BME280;2764;48.794;8.326;2022-09-09T05:38:08;99542.50;;;15.05;100.00
5484;BME280;2764;48.794;8.326;2022-09-09T05:39:09;99537.88;;;15.09;100.00
5484;BME280;2764;48.794;8.326;2022-09-09T05:40:13;99510.06;;;15.05;100.00
5484;BME280;2764;48.794;8.326;2022-09-09T05:41:17;99550.50;;;15.43;100.00
5484;BME280;2764;48.794;8.326;2022-09-09T05:42:19;99538.03;;;15.47;100.00
5484;BME280;2764;48.794;8.326;2022-09-09T05:43:23;99549.00;;;15.53;100.00
5484;BME280;2764;48.794;8.326;2022-09-09T05:44:25;99546.91;;;15.58;100.00
5484;BME280;2764;48.794;8.326;2022-09-09T05:45:29;99510.34;;;15.39;100.00
5484;BME280;2764;48.794;8.326;2022-09-09T05:46:31;99536.66;;;15.54;100.00
5484;BME280;2764;48.794;8.326;2022-09-09T05:47:34;99522.38;;;15.43;100.00
5484;BME280;2764;48.794;8.326;2022-09-09T05:48:40;99460.81;;;14.93;100.00
5484;BME280;2764;48.794;8.326;2022-09-09T05:49:43;99563.81;;;15.81;100.00
5484;BME280;2764;48.794;8.326;2022-09-09T05:50:52;99551.97;;;15.86;100.00
5484;BME280;2764;48.794;8.326;2022-09-09T05:51:54;99561.63;;;16.00;100.00
5484;BME280;2764;48.794;8.326;2022-09-09T05:52:56;99527.53;;;15.72;100.00
5484;BME280;2764;48.794;8.326;2022-09-09T05:54:00;99515.69;;;15.65;100.00
5484;BME280;2764;48.794;8.326;2022-09-09T05:55:02;99524.47;;;15.65;100.00
5484;BME280;2764;48.794;8.326;2022-09-09T05:56:15;99555.38;;;15.88;100.00
5484;BME280;2764;48.794;8.326;2022-09-09T05:57:16;99524.53;;;15.64;100.00
5484;BME280;2764;48.794;8.326;2022-09-09T05:58:20;99559.06;;;15.86;100.00
5484;BME280;2764;48.794;8.326;2022-09-09T05:59:25;99556.84;;;15.92;100.00
5484;BME280;2764;48.794;8.326;2022-09-09T06:00:26;99564.84;;;15.91;100.00
5484;BME280;2764;48.794;8.326;2022-09-09T06:01:32;99569.50;;;15.87;100.00
5484;BME280;2764;48.794;8.326;2022-09-09T06:02:34;99558.41;;;15.82;100.00
5484;BME280;2764;48.794;8.326;2022-09-09T06:03:39;99567.22;;;15.95;100.00
5484;BME280;2764;48.794;8.326;2022-09-09T06:04:42;99560.13;;;15.96;100.00
5484;BME280;2764;48.794;8.326;2022-09-09T06:05:45;99515.91;;;15.62;100.00
5484;BME280;2764;48.794;8.326;2022-09-09T06:06:47;99491.69;;;15.42;100.00
5484;BME280;2764;48.794;8.326;2022-09-09T06:07:52;99551.03;;;15.75;100.00
5484;BME280;2764;48.794;8.326;2022-09-09T06:08:56;99535.75;;;15.67;100.00
5484;BME280;2764;48.794;8.326;2022-09-09T06:10:01;99531.63;;;15.76;100.00
5484;BME280;2764;48.794;8.326;2022-09-09T06:11:04;99559.56;;;15.91;100.00
5484;BME280;2764;48.794;8.326;2022-09-09T06:12:06;99538.56;;;15.64;100.00
5484;BME280;2764;48.794;8.326;2022-09-09T06:13:09;99519.28;;;15.64;100.00
5484;BME280;2764;48.794;8.326;2022-09-09T06:14:12;99542.59;;;15.82;100.00
5484;BME280;2764;48.794;8.326;2022-09-09T06:15:14;99559.69;;;15.89;100.00
5484;BME280;2764;48.794;8.326;2022-09-09T06:16:18;99525.94;;;15.82;100.00
5484;BME280;2764;48.794;8.326;2022-09-09T06:17:20;99546.94;;;15.96;100.00
5484;BME280;2764;48.794;8.326;2022-09-09T06:18:22;99555.16;;;15.91;100.00
5484;BME280;2764;48.794;8.326;2022-09-09T06:19:24;99519.88;;;15.55;100.00
5484;BME280;2764;48.794;8.326;2022-09-09T06:20:27;99560.03;;;15.97;100.00
5484;BME280;2764;48.794;8.326;2022-09-09T06:21:34;99514.03;;;15.76;100.00
5484;BME280;2764;48.794;8.326;2022-09-09T06:22:40;99553.88;;;16.09;100.00
5484;BME280;2764;48.794;8.326;2022-09-09T06:23:43;99553.81;;;16.11;100.00
5484;BME280;2764;48.794;8.326;2022-09-09T06:24:46;99439.88;;;15.56;100.00
5484;BME280;2764;48.794;8.326;2022-09-09T06:25:48;99481.50;;;16.13;100.00
5484;BME280;2764;48.794;8.326;2022-09-09T06:26:50;99531.00;;;16.71;100.00
5484;BME280;2764;48.794;8.326;2022-09-09T06:27:52;99568.47;;;16.89;100.00
5484;BME280;2764;48.794;8.326;2022-09-09T06:28:55;99524.00;;;16.83;100.00